Time,TemperatureF,DewpointF,PressureIn,WindDirection,WindDirectionDegrees,WindSpeedMPH,WindSpeedGustMPH,Humidity,HourlyPrecipIn,Conditions,Clouds,dailyrainin,SoftwareType,DateUTC
2013-05-02 00:01:00,64.0,45.0,30.04,NNE,19,0.0,-999.0,51,-99.99,,,-99.99,,2013-05-02 07:01:00,
2013-05-02 00:11:00,64.0,45.0,30.04,NNE,19,0.0,-999.0,51,-99.99,,,-99.99,,2013-05-02 07:11:00,
2013-05-02 00:21:00,63.0,45.0,30.04,NNE,19,0.0,-999.0,51,-99.99,,,-99.99,,2013-05-02 07:21:00,
2013-05-02 00:31:00,63.0,44.0,30.05,NNE,19,0.0,-999.0,49,-99.99,,,-99.99,,2013-05-02 07:31:00,
2013-05-02 00:41:00,63.0,44.0,30.05,NNE,19,0.0,-999.0,49,-99.99,,,-99.99,,2013-05-02 07:41:00,
2013-05-02 00:52:00,63.0,42.0,30.06,WNW,289,2.0,-999.0,46,-99.99,,,-99.99,,2013-05-02 07:52:00,
2013-05-02 01:02:00,64.0,40.0,30.06,WNW,290,1.0,-999.0,42,-99.99,,,-99.99,,2013-05-02 08:02:00,
2013-05-02 01:11:00,64.0,40.0,30.06,WNW,290,1.0,-999.0,42,-99.99,,,-99.99,,2013-05-02 08:11:00,
2013-05-02 01:21:00,64.0,38.0,30.06,NW,304,1.0,-999.0,38,-99.99,,,-99.99,,2013-05-02 08:21:00,
2013-05-02 01:32:00,64.0,37.0,30.07,NW,304,1.0,-999.0,37,-99.99,,,-99.99,,2013-05-02 08:32:00,
2013-05-02 01:42:00,64.0,37.0,30.07,NW,304,1.0,-999.0,37,-99.99,,,-99.99,,2013-05-02 08:42:00,
2013-05-02 01:52:00,64.0,36.0,30.07,NW,315,1.0,-999.0,35,-99.99,,,-99.99,,2013-05-02 08:52:00,
2013-05-02 02:01:00,64.0,34.0,30.07,WNW,284,1.0,-999.0,33,-99.99,,,-99.99,,2013-05-02 09:01:00,
2013-05-02 02:11:00,64.0,34.0,30.07,WNW,284,1.0,-999.0,33,-99.99,,,-99.99,,2013-05-02 09:11:00,
2013-05-02 02:21:00,64.0,34.0,30.07,NW,315,1.0,-999.0,32,-99.99,,,-99.99,,2013-05-02 09:21:00,
2013-05-02 02:32:00,64.0,33.0,30.07,NW,319,2.0,-999.0,31,-99.99,,,-99.99,,2013-05-02 09:32:00,
2013-05-02 02:42:00,64.0,33.0,30.07,NW,319,2.0,-999.0,31,-99.99,,,-99.99,,2013-05-02 09:42:00,
2013-05-02 02:52:00,63.0,32.0,30.07,WNW,300,2.0,-999.0,31,-99.99,,,-99.99,,2013-05-02 09:52:00,
2013-05-02 03:02:00,63.0,32.0,30.08,NW,313,2.0,-999.0,31,-99.99,,,-99.99,,2013-05-02 10:02:00,
2013-05-02 03:12:00,63.0,32.0,30.08,NW,313,2.0,-999.0,31,-99.99,,,-99.99,,2013-05-02 10:12:00,
2013-05-02 03:22:00,63.0,31.0,30.08,NNW,333,2.0,-999.0,30,-99.99,,,-99.99,,2013-05-02 10:22:00,
2013-05-02 03:32:00,63.0,31.0,30.08,WNW,302,2.0,-999.0,30,-99.99,,,-99.99,,2013-05-02 10:32:00,
2013-05-02 03:42:00,63.0,31.0,30.08,WNW,302,2.0,-999.0,30,-99.99,,,-99.99,,2013-05-02 10:42:00,
2013-05-02 03:52:00,63.0,30.0,30.08,WNW,298,3.0,-999.0,29,-99.99,,,-99.99,,2013-05-02 10:52:00,
2013-05-02 04:02:00,63.0,31.0,30.09,NW,325,3.0,-999.0,30,-99.99,,,-99.99,,2013-05-02 11:02:00,
2013-05-02 04:11:00,63.0,31.0,30.09,NW,325,3.0,-999.0,30,-99.99,,,-99.99,,2013-05-02 11:11:00,
2013-05-02 04:21:00,62.0,31.0,30.09,NW,309,2.0,-999.0,31,-99.99,,,-99.99,,2013-05-02 11:21:00,
2013-05-02 04:31:00,62.0,32.0,30.09,NNW,340,2.0,-999.0,32,-99.99,,,-99.99,,2013-05-02 11:31:00,
2013-05-02 04:41:00,62.0,32.0,30.09,NNW,340,2.0,-999.0,32,-99.99,,,-99.99,,2013-05-02 11:41:00,
2013-05-02 04:52:00,61.0,32.0,30.09,NNW,333,2.0,-999.0,33,-99.99,,,-99.99,,2013-05-02 11:52:00,
2013-05-02 05:01:00,61.0,32.0,30.09,WNW,294,2.0,-999.0,34,-99.99,,,-99.99,,2013-05-02 12:01:00,
2013-05-02 05:11:00,61.0,32.0,30.09,WNW,294,2.0,-999.0,34,-99.99,,,-99.99,,2013-05-02 12:11:00,
2013-05-02 05:21:00,60.0,32.0,30.10,WNW,296,2.0,-999.0,35,-99.99,,,-99.99,,2013-05-02 12:21:00,
2013-05-02 05:32:00,60.0,34.0,30.10,WNW,302,2.0,-999.0,37,-99.99,,,-99.99,,2013-05-02 12:32:00,
2013-05-02 05:41:00,60.0,34.0,30.10,WNW,302,2.0,-999.0,37,-99.99,,,-99.99,,2013-05-02 12:41:00,
2013-05-02 05:52:00,59.0,34.0,30.11,West,279,2.0,-999.0,39,-99.99,,,-99.99,,2013-05-02 12:52:00,
2013-05-02 06:01:00,58.0,35.0,30.11,WNW,296,1.0,-999.0,42,-99.99,,,-99.99,,2013-05-02 13:01:00,
2013-05-02 06:11:00,58.0,35.0,30.11,WNW,296,1.0,-999.0,42,-99.99,,,-99.99,,2013-05-02 13:11:00,
2013-05-02 06:21:00,57.0,35.0,30.11,NW,314,2.0,-999.0,43,-99.99,,,-99.99,,2013-05-02 13:21:00,
2013-05-02 06:31:00,57.0,35.0,30.11,NW,314,2.0,-999.0,43,-99.99,,,-99.99,,2013-05-02 13:31:00,
2013-05-02 06:41:00,57.0,35.0,30.11,NW,314,2.0,-999.0,43,-99.99,,,-99.99,,2013-05-02 13:41:00,
2013-05-02 06:52:00,56.0,35.0,30.12,WNW,286,1.0,-999.0,45,-99.99,,,-99.99,,2013-05-02 13:52:00,
2013-05-02 07:02:00,56.0,36.0,30.13,NW,323,0.0,-999.0,46,-99.99,,,-99.99,,2013-05-02 14:02:00,
2013-05-02 07:11:00,56.0,36.0,30.13,NW,323,0.0,-999.0,46,-99.99,,,-99.99,,2013-05-02 14:11:00,
2013-05-02 07:21:00,56.0,36.0,30.13,NW,320,0.0,-999.0,46,-99.99,,,-99.99,,2013-05-02 14:21:00,
2013-05-02 07:31:00,57.0,36.0,30.13,NW,312,1.0,-999.0,45,-99.99,,,-99.99,,2013-05-02 14:31:00,
2013-05-02 07:42:00,57.0,36.0,30.13,NW,312,1.0,-999.0,45,-99.99,,,-99.99,,2013-05-02 14:42:00,
2013-05-02 07:52:00,58.0,36.0,30.14,WNW,300,1.0,-999.0,44,-99.99,,,-99.99,,2013-05-02 14:52:00,
2013-05-02 08:02:00,60.0,37.0,30.14,WNW,296,2.0,-999.0,42,-99.99,,,-99.99,,2013-05-02 15:02:00,
2013-05-02 08:11:00,60.0,37.0,30.14,WNW,296,2.0,-999.0,42,-99.99,,,-99.99,,2013-05-02 15:11:00,
2013-05-02 08:21:00,61.0,35.0,30.14,NNW,329,2.0,-999.0,38,-99.99,,,-99.99,,2013-05-02 15:21:00,
2013-05-02 08:32:00,63.0,35.0,30.14,WNW,286,3.0,-999.0,35,-99.99,,,-99.99,,2013-05-02 15:32:00,
2013-05-02 08:43:00,63.0,35.0,30.14,WNW,286,3.0,-999.0,35,-99.99,,,-99.99,,2013-05-02 15:43:00,
2013-05-02 09:02:00,64.0,34.0,30.14,NW,311,3.0,-999.0,32,-99.99,,,-99.99,,2013-05-02 16:02:00,
2013-05-02 09:13:00,64.0,34.0,30.14,NW,311,3.0,-999.0,32,-99.99,,,-99.99,,2013-05-02 16:13:00,
2013-05-02 09:22:00,66.0,34.0,30.14,NW,315,3.0,-999.0,31,-99.99,,,-99.99,,2013-05-02 16:22:00,
2013-05-02 09:32:00,68.0,35.0,30.14,WNW,300,4.0,-999.0,29,-99.99,,,-99.99,,2013-05-02 16:32:00,
2013-05-02 09:43:00,68.0,35.0,30.14,WNW,300,4.0,-999.0,29,-99.99,,,-99.99,,2013-05-02 16:43:00,
2013-05-02 09:52:00,69.0,35.0,30.14,NNW,337,3.0,-999.0,29,-99.99,,,-99.99,,2013-05-02 16:52:00,
2013-05-02 10:02:00,71.0,34.0,30.14,West,277,3.0,-999.0,26,-99.99,,,-99.99,,2013-05-02 17:02:00,
2013-05-02 10:12:00,71.0,34.0,30.14,West,277,3.0,-999.0,26,-99.99,,,-99.99,,2013-05-02 17:12:00,
2013-05-02 10:22:00,73.0,35.0,30.14,NW,322,4.0,-999.0,25,-99.99,,,-99.99,,2013-05-02 17:22:00,
2013-05-02 10:31:00,74.0,33.0,30.14,NNW,342,4.0,-999.0,22,-99.99,,,-99.99,,2013-05-02 17:31:00,
2013-05-02 10:42:00,74.0,33.0,30.14,NNW,342,4.0,-999.0,22,-99.99,,,-99.99,,2013-05-02 17:42:00,
2013-05-02 10:52:00,76.0,31.0,30.14,WNW,287,5.0,-999.0,19,-99.99,,,-99.99,,2013-05-02 17:52:00,
2013-05-02 11:01:00,77.0,30.0,30.14,NNE,19,5.0,-999.0,18,-99.99,,,-99.99,,2013-05-02 18:01:00,
2013-05-02 11:11:00,77.0,30.0,30.14,NNE,19,5.0,-999.0,18,-99.99,,,-99.99,,2013-05-02 18:11:00,
2013-05-02 11:21:00,78.0,31.0,30.14,NNE,26,3.0,-999.0,18,-99.99,,,-99.99,,2013-05-02 18:21:00,
2013-05-02 11:31:00,79.0,30.0,30.14,NNW,333,6.0,-999.0,17,-99.99,,,-99.99,,2013-05-02 18:31:00,
2013-05-02 11:41:00,79.0,30.0,30.14,NNW,333,6.0,-999.0,17,-99.99,,,-99.99,,2013-05-02 18:41:00,
2013-05-02 11:52:00,80.0,30.0,30.14,NW,306,4.0,-999.0,16,-99.99,,,-99.99,,2013-05-02 18:52:00,
2013-05-02 12:01:00,81.0,31.0,30.13,NNW,330,4.0,-999.0,16,-99.99,,,-99.99,,2013-05-02 19:01:00,
2013-05-02 12:11:00,81.0,31.0,30.13,NNW,330,4.0,-999.0,16,-99.99,,,-99.99,,2013-05-02 19:11:00,
2013-05-02 12:21:00,81.0,31.0,30.13,NNW,330,4.0,-999.0,16,-99.99,,,-99.99,,2013-05-02 19:21:00,
2013-05-02 12:31:00,82.0,30.0,30.13,NW,317,4.0,-999.0,15,-99.99,,,-99.99,,2013-05-02 19:31:00,
2013-05-02 12:41:00,82.0,30.0,30.13,NW,317,4.0,-999.0,15,-99.99,,,-99.99,,2013-05-02 19:41:00,
2013-05-02 12:52:00,83.0,25.0,30.12,WNW,296,3.0,-999.0,12,-99.99,,,-99.99,,2013-05-02 19:52:00,
2013-05-02 13:02:00,84.0,26.0,30.11,WNW,299,4.0,-999.0,12,-99.99,,,-99.99,,2013-05-02 20:02:00,
2013-05-02 13:11:00,84.0,26.0,30.11,WNW,299,4.0,-999.0,12,-99.99,,,-99.99,,2013-05-02 20:11:00,
2013-05-02 13:21:00,85.0,29.0,30.11,WNW,282,3.0,-999.0,13,-99.99,,,-99.99,,2013-05-02 20:21:00,
2013-05-02 13:32:00,85.0,30.0,30.10,NW,308,3.0,-999.0,14,-99.99,,,-99.99,,2013-05-02 20:32:00,
2013-05-02 13:41:00,85.0,30.0,30.10,NW,308,3.0,-999.0,14,-99.99,,,-99.99,,2013-05-02 20:41:00,
2013-05-02 13:52:00,85.0,27.0,30.11,North,360,5.0,-999.0,12,-99.99,,,-99.99,,2013-05-02 20:52:00,
2013-05-02 14:01:00,86.0,23.0,30.10,North,10,4.0,-999.0,10,-99.99,,,-99.99,,2013-05-02 21:01:00,
2013-05-02 14:11:00,86.0,23.0,30.10,North,10,4.0,-999.0,10,-99.99,,,-99.99,,2013-05-02 21:11:00,
2013-05-02 14:21:00,87.0,26.0,30.10,NNW,334,3.0,-999.0,11,-99.99,,,-99.99,,2013-05-02 21:21:00,
2013-05-02 14:33:00,88.0,29.0,30.09,WNW,293,2.0,-999.0,12,-99.99,,,-99.99,,2013-05-02 21:33:00,
2013-05-02 14:42:00,88.0,29.0,30.09,WNW,293,2.0,-999.0,12,-99.99,,,-99.99,,2013-05-02 21:42:00,
2013-05-02 14:53:00,88.0,31.0,30.09,NW,306,3.0,-999.0,13,-99.99,,,-99.99,,2013-05-02 21:53:00,
2013-05-02 15:02:00,88.0,31.0,30.09,NNW,330,2.0,-999.0,13,-99.99,,,-99.99,,2013-05-02 22:02:00,
2013-05-02 15:12:00,88.0,31.0,30.09,NNW,330,2.0,-999.0,13,-99.99,,,-99.99,,2013-05-02 22:12:00,
2013-05-02 15:22:00,88.0,29.0,30.09,WNW,287,3.0,-999.0,12,-99.99,,,-99.99,,2013-05-02 22:22:00,
2013-05-02 15:32:00,89.0,28.0,30.08,WNW,301,2.0,-999.0,11,-99.99,,,-99.99,,2013-05-02 22:32:00,
2013-05-02 15:42:00,89.0,28.0,30.08,WNW,301,2.0,-999.0,11,-99.99,,,-99.99,,2013-05-02 22:42:00,
2013-05-02 15:52:00,90.0,26.0,30.07,WNW,296,2.0,-999.0,10,-99.99,,,-99.99,,2013-05-02 22:52:00,
2013-05-02 16:02:00,90.0,33.0,30.07,WNW,300,2.0,-999.0,13,-99.99,,,-99.99,,2013-05-02 23:02:00,
2013-05-02 16:11:00,90.0,33.0,30.07,WNW,300,2.0,-999.0,13,-99.99,,,-99.99,,2013-05-02 23:11:00,
2013-05-02 16:22:00,90.0,26.0,30.06,NNW,345,4.0,-999.0,10,-99.99,,,-99.99,,2013-05-02 23:22:00,
2013-05-02 16:31:00,91.0,31.0,30.06,WNW,291,2.0,-999.0,12,-99.99,,,-99.99,,2013-05-02 23:31:00,
2013-05-02 16:42:00,91.0,31.0,30.06,WNW,291,2.0,-999.0,12,-99.99,,,-99.99,,2013-05-02 23:42:00,
2013-05-02 16:51:00,91.0,33.0,30.06,WNW,299,2.0,-999.0,13,-99.99,,,-99.99,,2013-05-02 23:51:00,
2013-05-02 17:01:00,91.0,33.0,30.06,NW,313,2.0,-999.0,13,-99.99,,,-99.99,,2013-05-03 00:01:00,
2013-05-02 17:11:00,91.0,33.0,30.06,NW,313,2.0,-999.0,13,-99.99,,,-99.99,,2013-05-03 00:11:00,
2013-05-02 17:21:00,91.0,31.0,30.05,WNW,292,2.0,-999.0,12,-99.99,,,-99.99,,2013-05-03 00:21:00,
2013-05-02 17:31:00,91.0,33.0,30.05,WNW,294,1.0,-999.0,13,-99.99,,,-99.99,,2013-05-03 00:31:00,
2013-05-02 17:41:00,91.0,33.0,30.05,WNW,294,1.0,-999.0,13,-99.99,,,-99.99,,2013-05-03 00:41:00,
2013-05-02 17:52:00,91.0,29.0,30.04,NNW,340,2.0,-999.0,11,-99.99,,,-99.99,,2013-05-03 00:52:00,
2013-05-02 18:01:00,91.0,29.0,30.04,WNW,292,2.0,-999.0,11,-99.99,,,-99.99,,2013-05-03 01:01:00,
2013-05-02 18:11:00,91.0,29.0,30.04,WNW,292,2.0,-999.0,11,-99.99,,,-99.99,,2013-05-03 01:11:00,
2013-05-02 18:21:00,90.0,28.0,30.04,WNW,302,2.0,-999.0,11,-99.99,,,-99.99,,2013-05-03 01:21:00,
2013-05-02 18:31:00,90.0,26.0,30.03,NW,312,1.0,-999.0,10,-99.99,,,-99.99,,2013-05-03 01:31:00,
2013-05-02 18:41:00,90.0,26.0,30.03,NW,312,1.0,-999.0,10,-99.99,,,-99.99,,2013-05-03 01:41:00,
2013-05-02 18:52:00,90.0,26.0,30.03,NNW,336,1.0,-999.0,10,-99.99,,,-99.99,,2013-05-03 01:52:00,
2013-05-02 19:01:00,89.0,25.0,30.03,NW,304,2.0,-999.0,10,-99.99,,,-99.99,,2013-05-03 02:01:00,
2013-05-02 19:11:00,89.0,25.0,30.03,NW,304,2.0,-999.0,10,-99.99,,,-99.99,,2013-05-03 02:11:00,
2013-05-02 19:21:00,89.0,30.0,30.03,NW,304,0.0,-999.0,12,-99.99,,,-99.99,,2013-05-03 02:21:00,
2013-05-02 19:31:00,88.0,29.0,30.02,NW,304,0.0,-999.0,12,-99.99,,,-99.99,,2013-05-03 02:31:00,
2013-05-02 19:41:00,88.0,29.0,30.02,NW,304,0.0,-999.0,12,-99.99,,,-99.99,,2013-05-03 02:41:00,
2013-05-02 19:52:00,87.0,40.0,30.02,NW,304,0.0,-999.0,19,-99.99,,,-99.99,,2013-05-03 02:52:00,
2013-05-02 20:01:00,86.0,43.0,30.02,NW,304,0.0,-999.0,22,-99.99,,,-99.99,,2013-05-03 03:01:00,
2013-05-02 20:33:00,82.0,44.0,30.02,NW,304,0.0,-999.0,26,-99.99,,,-99.99,,2013-05-03 03:33:00,
2013-05-02 20:52:00,80.0,46.0,30.03,NW,304,0.0,-999.0,30,-99.99,,,-99.99,,2013-05-03 03:52:00,
2013-05-02 21:02:00,78.0,47.0,30.03,NW,304,0.0,-999.0,33,-99.99,,,-99.99,,2013-05-03 04:02:00,
2013-05-02 21:22:00,76.0,46.0,30.03,NW,304,0.0,-999.0,34,-99.99,,,-99.99,,2013-05-03 04:22:00,
2013-05-02 21:32:00,75.0,45.0,30.03,NW,304,0.0,-999.0,34,-99.99,,,-99.99,,2013-05-03 04:32:00,
2013-05-02 21:52:00,74.0,44.0,30.03,NW,304,0.0,-999.0,34,-99.99,,,-99.99,,2013-05-03 04:52:00,
2013-05-02 22:02:00,73.0,46.0,30.03,NW,304,0.0,-999.0,38,-99.99,,,-99.99,,2013-05-03 05:02:00,
2013-05-02 22:21:00,72.0,46.0,30.03,NW,304,0.0,-999.0,39,-99.99,,,-99.99,,2013-05-03 05:21:00,
2013-05-02 22:32:00,71.0,47.0,30.03,NW,304,0.0,-999.0,42,-99.99,,,-99.99,,2013-05-03 05:32:00,
2013-05-02 22:52:00,70.0,46.0,30.03,NW,304,0.0,-999.0,43,-99.99,,,-99.99,,2013-05-03 05:52:00,
2013-05-02 23:01:00,69.0,47.0,30.03,NW,304,0.0,-999.0,46,-99.99,,,-99.99,,2013-05-03 06:01:00,
2013-05-02 23:31:00,68.0,50.0,30.03,NW,304,0.0,-999.0,53,-99.99,,,-99.99,,2013-05-03 06:31:00,
2013-05-02 23:51:00,67.0,49.0,30.03,NW,304,0.0,-999.0,53,-99.99,,,-99.99,,2013-05-03 06:51:00,